L'Hospitalet de Llobregat, Spain
Current Conditions -  °F | °C
As of 10:30 AM on Saturday 25 Oct 2014 (Local Time) from LEBL Reporting Station
Clear Clear  
Wind Chill: 64°   Ceiling: Unl
Heat Index: 64°   Visibility: 6mi
Dew Point: 52°   Wind: 9mph
Humidity: 64%   Direction: 310°NW
Pressure: 30.09"   Gusts: NA
Location:  41.36°N, 2.1°E
Report Text: LEBL 250830Z 31008KT 250V350 CAVOK 18/11 Q1019 NOSIG
Loading
Personal Weather Stations






























Interactive Weather Map
Tropical Storm Tracking
New forecast layout! Learn more

10-Day Weather Forecast

Advertisements
Track Severe Weather on mobile